createdAt,value
2024-03-24T00:04:13.280Z,81.70
2024-03-24T00:10:47.080Z,81.91
2024-03-24T00:16:24.681Z,81.99
2024-03-24T00:21:52.356Z,82.18
2024-03-24T00:27:27.647Z,82.34
2024-03-24T00:32:56.401Z,82.47
2024-03-24T00:38:53.203Z,82.81
2024-03-24T00:44:42.414Z,85.32
2024-03-24T00:50:27.396Z,87.79
2024-03-24T00:55:43.353Z,88.79
2024-03-24T01:01:10.303Z,88.62
2024-03-24T01:06:30.940Z,87.27
2024-03-24T01:12:27.820Z,85.31
2024-03-24T01:18:27.238Z,85.25
2024-03-24T01:23:42.498Z,85.01
2024-03-24T01:29:15.305Z,84.40
2024-03-24T01:35:11.082Z,83.87
2024-03-24T01:40:50.685Z,83.91
2024-03-24T01:47:18.504Z,84.00
2024-03-24T01:52:47.869Z,84.25
2024-03-24T01:58:35.894Z,84.35
2024-03-24T02:04:43.243Z,83.96
2024-03-24T02:11:08.033Z,83.93
2024-03-24T02:16:57.521Z,83.96
2024-03-24T02:22:41.425Z,83.89
2024-03-24T02:29:06.738Z,84.08
2024-03-24T02:34:33.270Z,84.11
2024-03-24T02:40:15.601Z,84.25
2024-03-24T02:45:57.353Z,84.09
2024-03-24T02:52:07.958Z,83.91
2024-03-24T02:57:42.632Z,84.16
2024-03-24T03:03:23.179Z,84.40
2024-03-24T03:09:34.993Z,84.85
2024-03-24T03:15:57.859Z,84.46
2024-03-24T03:21:44.292Z,84.39
2024-03-24T03:27:17.582Z,84.61
2024-03-24T03:33:42.205Z,84.83
2024-03-24T03:39:50.603Z,85.07
2024-03-24T03:45:32.508Z,85.28
2024-03-24T03:51:09.887Z,85.43
2024-03-24T03:56:56.303Z,85.60
2024-03-24T04:03:21.164Z,85.61
2024-03-24T04:09:20.095Z,85.74
2024-03-24T04:15:25.879Z,86.00
2024-03-24T04:21:56.447Z,86.27
2024-03-24T04:28:22.379Z,86.29
2024-03-24T04:34:47.936Z,86.05
2024-03-24T04:41:14.185Z,86.05
2024-03-24T04:47:21.624Z,86.09
2024-03-24T04:53:38.179Z,86.32
2024-03-24T05:00:02.391Z,86.71
2024-03-24T05:05:32.982Z,86.50
2024-03-24T05:11:30.135Z,85.20
2024-03-24T05:17:47.054Z,84.27
2024-03-24T05:24:13.273Z,84.56
2024-03-24T05:30:27.583Z,84.86
2024-03-24T05:36:52.306Z,85.25
2024-03-24T05:42:39.898Z,85.56
2024-03-24T05:48:34.691Z,85.82
2024-03-24T05:54:39.452Z,85.45
2024-03-24T06:00:17.168Z,84.84
2024-03-24T06:06:22.488Z,85.23
2024-03-24T06:12:47.764Z,85.27
2024-03-24T06:18:53.601Z,84.48
2024-03-24T06:24:48.934Z,84.10
2024-03-24T06:31:06.742Z,83.76
2024-03-24T06:36:34.312Z,83.30
2024-03-24T06:41:44.002Z,83.01
2024-03-24T06:46:55.035Z,82.38
2024-03-24T06:52:43.227Z,82.16
2024-03-24T06:58:41.186Z,82.14
2024-03-24T07:04:37.575Z,82.21
2024-03-24T07:10:55.028Z,81.14
2024-03-24T07:16:34.030Z,79.58
2024-03-24T07:21:45.103Z,78.91
2024-03-24T07:27:07.503Z,78.02
2024-03-24T07:32:31.194Z,77.39
2024-03-24T07:38:33.820Z,75.30
2024-03-24T07:45:05.205Z,73.83
2024-03-24T07:51:03.097Z,74.44
2024-03-24T07:56:22.623Z,71.63
2024-03-24T08:01:55.604Z,70.78
2024-03-24T08:07:21.295Z,70.18
2024-03-24T08:12:39.464Z,68.69
2024-03-24T08:18:46.316Z,69.93
2024-03-24T08:24:23.832Z,68.32
2024-03-24T08:30:31.756Z,66.17
2024-03-24T08:36:36.674Z,67.13
2024-03-24T08:42:26.345Z,64.02
2024-03-24T08:47:41.737Z,62.72
2024-03-24T08:53:15.568Z,61.60
2024-03-24T08:58:46.074Z,59.38
2024-03-24T09:04:23.588Z,59.10
2024-03-24T09:10:50.471Z,58.95
2024-03-24T09:16:54.527Z,60.40
2024-03-24T09:23:19.637Z,57.10
2024-03-24T09:29:25.022Z,56.65
2024-03-24T09:35:23.473Z,54.53
2024-03-24T09:41:09.465Z,53.61
2024-03-24T09:47:06.004Z,52.78
2024-03-24T09:52:51.276Z,51.81
2024-03-24T09:58:28.939Z,51.73
2024-03-24T10:03:56.712Z,51.41
2024-03-24T10:10:15.905Z,52.49
2024-03-24T10:16:40.120Z,51.87
2024-03-24T10:23:06.256Z,49.57
2024-03-24T10:29:19.461Z,50.41
2024-03-24T10:35:43.740Z,50.00
2024-03-24T10:41:19.770Z,50.55
2024-03-24T10:47:11.318Z,49.37
2024-03-24T10:53:18.446Z,48.96
2024-03-24T10:58:25.495Z,50.71
2024-03-24T11:03:54.759Z,51.61
2024-03-24T11:09:21.522Z,51.45
2024-03-24T11:14:50.752Z,50.55
2024-03-24T11:20:38.184Z,50.75
2024-03-24T11:26:17.524Z,51.58
2024-03-24T11:31:58.724Z,50.28
2024-03-24T11:37:20.644Z,48.54
2024-03-24T11:43:05.522Z,51.07
2024-03-24T11:48:53.538Z,49.74
2024-03-24T11:54:21.111Z,49.63
2024-03-24T11:59:37.260Z,50.64
2024-03-24T12:05:46.338Z,46.85
2024-03-24T12:11:00.984Z,47.33
2024-03-24T12:16:27.699Z,48.47
2024-03-24T12:22:18.930Z,49.21
2024-03-24T12:28:14.824Z,50.83
2024-03-24T12:33:52.197Z,51.47
2024-03-24T12:39:39.957Z,50.31
2024-03-24T12:45:46.382Z,51.62
2024-03-24T12:51:28.891Z,50.76
2024-03-24T12:56:59.461Z,50.34
2024-03-24T13:03:28.193Z,51.97
2024-03-24T13:09:17.034Z,49.84
2024-03-24T13:15:04.010Z,48.97
2024-03-24T13:20:41.916Z,48.95
2024-03-24T13:26:24.613Z,48.06
2024-03-24T13:31:52.846Z,48.58
2024-03-24T13:37:21.741Z,47.61
2024-03-24T13:43:21.348Z,44.59
2024-03-24T13:48:38.904Z,45.19
2024-03-24T13:54:41.865Z,47.29
2024-03-24T14:00:25.174Z,48.23
2024-03-24T14:06:07.172Z,49.20
2024-03-24T14:11:53.807Z,47.55
2024-03-24T14:18:06.192Z,46.55
2024-03-24T14:24:05.334Z,47.96
2024-03-24T14:30:00.527Z,48.67
2024-03-24T14:35:53.473Z,49.26
2024-03-24T14:42:23.676Z,49.83
2024-03-24T14:48:50.446Z,46.47
2024-03-24T14:54:39.016Z,47.60
2024-03-24T14:59:56.177Z,47.06
2024-03-24T15:05:11.095Z,48.37
2024-03-24T15:10:18.008Z,51.38
2024-03-24T15:15:56.038Z,53.76
2024-03-24T15:21:31.020Z,54.29
2024-03-24T15:27:38.548Z,54.10
2024-03-24T15:33:09.546Z,55.03
2024-03-24T15:39:01.387Z,54.80
2024-03-24T15:45:25.395Z,55.39
2024-03-24T15:51:43.015Z,55.34
2024-03-24T15:58:12.047Z,55.86
2024-03-24T16:04:04.144Z,55.71
2024-03-24T16:10:22.950Z,56.62
2024-03-24T16:17:01.770Z,57.02
2024-03-24T16:23:36.113Z,58.03
2024-03-24T16:29:28.754Z,58.49
2024-03-24T16:35:27.860Z,58.90
2024-03-24T16:41:31.575Z,59.36
2024-03-24T16:47:44.937Z,60.30
2024-03-24T16:53:53.892Z,60.70
2024-03-24T17:00:21.360Z,61.78
2024-03-24T17:06:38.265Z,61.35
2024-03-24T17:12:23.279Z,61.54
2024-03-24T17:19:01.644Z,61.45
2024-03-24T17:25:15.702Z,61.55
2024-03-24T17:31:25.222Z,61.49
2024-03-24T17:37:42.522Z,61.38
2024-03-24T17:44:03.102Z,62.31
2024-03-24T17:50:17.156Z,62.60
2024-03-24T17:56:14.661Z,62.17
2024-03-24T18:02:07.525Z,62.69
2024-03-24T18:08:23.653Z,62.42
2024-03-24T18:14:29.461Z,62.61
2024-03-24T18:20:13.214Z,63.14
2024-03-24T18:26:37.828Z,63.05
2024-03-24T18:32:35.350Z,63.37
2024-03-24T18:38:22.353Z,64.11
2024-03-24T18:44:31.402Z,63.95
2024-03-24T18:50:32.882Z,65.48
2024-03-24T18:56:57.583Z,65.29
2024-03-24T19:03:14.618Z,65.45
2024-03-24T19:09:20.891Z,65.82
2024-03-24T19:15:45.101Z,66.61
2024-03-24T19:21:58.436Z,66.61
2024-03-24T19:28:09.143Z,66.14
2024-03-24T19:33:58.984Z,66.79
2024-03-24T19:39:30.266Z,66.79
2024-03-24T19:45:26.913Z,67.10
2024-03-24T19:51:31.773Z,67.28
2024-03-24T19:57:25.251Z,68.67
2024-03-24T20:03:02.180Z,68.52
2024-03-24T20:09:19.473Z,68.99
2024-03-24T20:15:30.594Z,70.27
2024-03-24T20:21:40.293Z,70.90
2024-03-24T20:27:38.051Z,70.73
2024-03-24T20:33:45.563Z,70.73
2024-03-24T20:39:47.349Z,71.24
2024-03-24T20:45:37.484Z,70.92
2024-03-24T20:52:02.729Z,72.04
2024-03-24T20:58:14.012Z,72.55
2024-03-24T21:04:39.725Z,73.13
2024-03-24T21:10:58.579Z,71.47
2024-03-24T21:17:23.656Z,72.69
2024-03-24T21:23:45.769Z,71.82
2024-03-24T21:29:26.234Z,73.01
2024-03-24T21:35:51.520Z,72.11
2024-03-24T21:41:24.824Z,72.45
2024-03-24T21:46:55.757Z,73.22
2024-03-24T21:53:03.979Z,72.66
2024-03-24T21:59:12.042Z,72.39
2024-03-24T22:05:38.118Z,73.19
2024-03-24T22:12:01.046Z,73.36
2024-03-24T22:18:24.505Z,73.26
2024-03-24T22:24:50.829Z,73.33
2024-03-24T22:30:56.111Z,73.47
2024-03-24T22:36:44.771Z,73.82
2024-03-24T22:42:50.111Z,74.12
2024-03-24T22:49:17.165Z,74.24
2024-03-24T22:55:22.379Z,74.41
2024-03-24T23:01:42.260Z,74.24
2024-03-24T23:07:55.975Z,74.04
2024-03-24T23:14:20.403Z,74.14
2024-03-24T23:20:26.285Z,73.91
2024-03-24T23:26:51.799Z,73.10
2024-03-24T23:33:03.344Z,72.90
2024-03-24T23:38:54.998Z,72.94
2024-03-24T23:45:19.854Z,74.20
2024-03-24T23:51:44.162Z,73.22
2024-03-24T23:58:03.778Z,73.14
